Time;durP1;ratioP1;P1;durP2;ratioP2;P2;SDS_P1;SDS_P2;PMS_P1;PMS_P2;Temp;Humidity;BMP_temperature;BMP_pressure;BME280_temperature;BME280_humidity;BME280_pressure;Samples;Min_cycle;Max_cycle;Signal;HPM_P1;HPM_P2
2022/10/28 00:02:09;;;;;;;11.63;7.65;;;;;;;13.96;100.00;101624.75;5069198;28;20302;-66
2022/10/28 00:04:34;;;;;;;14.13;7.97;;;;;;;13.91;100.00;101622.88;5068888;28;20082;-66
2022/10/28 00:07:00;;;;;;;11.68;7.45;;;;;;;13.87;100.00;101628.81;5082516;28;20031;-66
2022/10/28 00:09:25;;;;;;;9.88;7.22;;;;;;;13.84;100.00;101630.44;5081535;28;20490;-66
2022/10/28 00:11:51;;;;;;;17.20;9.05;;;;;;;13.82;100.00;101635.63;5075105;28;20032;-66
2022/10/28 00:14:16;;;;;;;10.75;7.75;;;;;;;13.78;100.00;101632.03;5063239;28;20473;-66
2022/10/28 00:16:41;;;;;;;14.32;8.85;;;;;;;13.76;100.00;101627.63;5068804;28;20024;-66
2022/10/28 00:19:09;;;;;;;14.85;9.02;;;;;;;13.72;100.00;101625.75;5068663;28;20024;-66
2022/10/28 00:21:37;;;;;;;12.20;8.40;;;;;;;13.66;100.00;101623.81;5069067;28;20035;-66
2022/10/28 00:24:03;;;;;;;13.52;8.95;;;;;;;13.61;100.00;101623.69;5063172;28;20086;-66
2022/10/28 00:26:30;;;;;;;15.45;9.40;;;;;;;13.57;100.00;101616.59;5049311;28;20067;-66
2022/10/28 00:28:58;;;;;;;14.45;9.43;;;;;;;13.53;100.00;101619.94;5065641;28;20037;-66
2022/10/28 00:31:25;;;;;;;10.90;8.90;;;;;;;13.50;100.00;101612.00;5068280;28;20036;-66
2022/10/28 00:33:51;;;;;;;13.35;8.32;;;;;;;13.44;100.00;101617.88;5052951;28;20040;-65
2022/10/28 00:36:19;;;;;;;13.57;7.90;;;;;;;13.40;100.00;101616.91;5056513;28;20060;-66
2022/10/28 00:38:46;;;;;;;13.90;9.27;;;;;;;13.38;100.00;101616.00;5068499;28;20114;-66
2022/10/28 00:41:15;;;;;;;15.27;8.75;;;;;;;13.36;100.00;101619.38;5069056;28;20490;-66
2022/10/28 00:43:42;;;;;;;11.98;9.13;;;;;;;13.31;100.00;101619.22;5068076;28;20060;-66
2022/10/28 00:46:27;;;;;;;9.82;8.70;;;;;;;13.29;100.00;101618.28;5054496;28;20484;-66
2022/10/28 00:49:17;;;;;;;14.75;9.07;;;;;;;13.25;100.00;101619.91;5054887;28;20059;-66
2022/10/28 00:51:45;;;;;;;14.67;8.57;;;;;;;13.22;100.00;101612.00;5057626;28;20024;-66
2022/10/28 00:54:11;;;;;;;14.98;9.82;;;;;;;13.23;100.00;101599.84;5067860;28;20020;-66
2022/10/28 00:56:42;;;;;;;17.25;9.52;;;;;;;13.20;100.00;101600.66;5054654;28;20424;-66
2022/10/28 00:59:15;;;;;;;12.50;8.43;;;;;;;13.16;100.00;101599.66;5055807;28;20024;-66
2022/10/28 01:01:40;;;;;;;13.32;8.85;;;;;;;13.13;100.00;101593.47;5054176;28;20051;-66
2022/10/28 01:04:07;;;;;;;10.25;9.18;;;;;;;13.09;100.00;101582.06;5068123;28;20119;-66
2022/10/28 01:06:32;;;;;;;17.10;9.07;;;;;;;13.05;100.00;101590.59;5068142;28;20423;-66
2022/10/28 01:08:57;;;;;;;12.85;8.43;;;;;;;13.03;100.00;101581.84;5058380;28;20029;-65
2022/10/28 01:12:08;;;;;;;13.00;8.93;;;;;;;13.01;100.00;101580.91;5062247;28;20028;-66
2022/10/28 01:14:48;;;;;;;15.48;9.57;;;;;;;12.97;100.00;101574.72;5058945;28;20040;-66
2022/10/28 01:17:28;;;;;;;10.68;8.00;;;;;;;12.93;100.00;101576.34;5070957;28;20546;-66
2022/10/28 01:20:21;;;;;;;11.73;8.60;;;;;;;12.90;100.00;101580.59;5057638;28;20461;-67
2022/10/28 01:23:14;;;;;;;14.50;8.80;;;;;;;12.87;100.00;101581.34;5056221;28;20040;-66
2022/10/28 01:25:58;;;;;;;10.65;7.55;;;;;;;12.84;100.00;101584.72;5063016;28;20093;-66
2022/10/28 01:28:56;;;;;;;12.48;8.70;;;;;;;12.84;100.00;101578.66;5085190;28;20034;-66
2022/10/28 01:31:40;;;;;;;13.18;8.77;;;;;;;12.82;100.00;101582.91;5067708;28;20040;-66
2022/10/28 01:34:24;;;;;;;13.75;9.48;;;;;;;12.79;100.00;101580.22;5067279;28;20029;-66
2022/10/28 01:37:00;;;;;;;13.95;8.85;;;;;;;12.78;100.00;101581.03;5067229;28;20336;-66
2022/10/28 01:39:42;;;;;;;13.77;8.85;;;;;;;12.73;100.00;101576.56;5088641;28;20043;-66
2022/10/28 01:42:37;;;;;;;9.48;7.88;;;;;;;12.70;100.00;101570.38;5083718;28;20028;-66
2022/10/28 01:45:17;;;;;;;12.57;8.40;;;;;;;12.66;100.00;101571.09;5049767;28;20049;-66
2022/10/28 01:48:04;;;;;;;11.52;8.65;;;;;;;12.61;100.00;101563.09;5088311;28;20476;-66
2022/10/28 01:50:38;;;;;;;12.48;9.05;;;;;;;12.59;100.00;101564.78;5066820;28;20111;-66
2022/10/28 01:53:09;;;;;;;11.55;8.13;;;;;;;12.55;100.00;101557.72;5058078;28;20202;-66
2022/10/28 01:55:38;;;;;;;13.48;8.65;;;;;;;12.51;100.00;101561.91;5083550;28;20024;-66
2022/10/28 01:58:05;;;;;;;14.05;8.88;;;;;;;12.51;100.00;101571.41;5078043;28;20035;-66
2022/10/28 02:00:32;;;;;;;12.38;8.32;;;;;;;12.49;100.00;101564.47;5053516;28;20353;-66
2022/10/28 02:02:58;;;;;;;13.13;8.43;;;;;;;12.49;100.00;101568.75;5075499;28;20041;-66
2022/10/28 02:05:32;;;;;;;11.60;8.40;;;;;;;12.47;100.00;101568.72;5087211;28;20024;-66
2022/10/28 02:08:05;;;;;;;11.02;8.93;;;;;;;12.49;100.00;101556.66;5087206;28;20077;-66
2022/10/28 02:10:36;;;;;;;10.30;8.43;;;;;;;12.48;100.00;101556.59;5087255;28;20028;-66
2022/10/28 02:13:10;;;;;;;8.85;7.50;;;;;;;12.48;100.00;101557.47;5081579;28;20024;-66
2022/10/28 02:15:54;;;;;;;9.90;7.55;;;;;;;12.48;100.00;101562.66;5054131;28;20066;-66
2022/10/28 02:18:30;;;;;;;13.00;7.70;;;;;;;12.55;100.00;101557.72;5055072;28;20383;-66
2022/10/28 02:21:05;;;;;;;12.55;7.82;;;;;;;12.57;100.00;101556.94;5066342;28;20051;-66
2022/10/28 02:23:51;;;;;;;15.38;7.68;;;;;;;12.60;100.00;101553.56;5067212;28;20506;-65
2022/10/28 02:26:21;;;;;;;11.30;7.35;;;;;;;12.61;100.00;101563.09;5052734;28;20380;-66
2022/10/28 02:29:01;;;;;;;11.40;6.72;;;;;;;12.61;100.00;101566.59;5067036;28;20075;-66
2022/10/28 02:31:50;;;;;;;13.70;7.65;;;;;;;12.64;100.00;101562.34;5065881;28;20045;-66
2022/10/28 02:34:20;;;;;;;12.95;7.53;;;;;;;12.66;100.00;101553.78;5066596;28;20094;-66
2022/10/28 02:36:51;;;;;;;9.65;7.10;;;;;;;12.69;100.00;101553.88;5080597;28;20551;-66
2022/10/28 02:39:19;;;;;;;11.00;6.10;;;;;;;12.68;100.00;101554.69;5066466;28;20424;-66
2022/10/28 02:41:52;;;;;;;9.38;6.55;;;;;;;12.70;100.00;101547.81;5066091;28;20101;-66
2022/10/28 02:44:27;;;;;;;10.18;6.50;;;;;;;12.68;100.00;101533.88;5066412;28;20190;-66
2022/10/28 02:46:58;;;;;;;13.68;7.45;;;;;;;12.69;100.00;101545.19;5080257;28;20083;-66
2022/10/28 02:49:25;;;;;;;11.43;6.57;;;;;;;12.66;100.00;101543.38;5056657;28;20021;-66
2022/10/28 02:51:56;;;;;;;10.70;6.47;;;;;;;12.63;100.00;101545.84;5062614;28;20274;-66
2022/10/28 02:54:26;;;;;;;11.13;7.00;;;;;;;12.63;100.00;101550.19;5066866;28;20112;-66
2022/10/28 02:56:59;;;;;;;12.00;6.35;;;;;;;12.59;100.00;101549.19;5066686;28;20064;-66
2022/10/28 02:59:25;;;;;;;8.40;5.93;;;;;;;12.60;100.00;101550.94;5065456;28;20408;-66
2022/10/28 03:01:50;;;;;;;12.60;6.68;;;;;;;12.59;100.00;101544.00;5052062;28;20025;-66
2022/10/28 03:04:16;;;;;;;8.52;5.70;;;;;;;12.58;100.00;101544.81;5059810;28;20025;-66
2022/10/28 03:06:41;;;;;;;10.68;5.97;;;;;;;12.55;100.00;101542.09;5071969;28;20047;-66
2022/10/28 03:09:06;;;;;;;12.23;6.75;;;;;;;12.54;100.00;101535.16;5062975;28;20039;-66
2022/10/28 03:11:32;;;;;;;9.23;5.88;;;;;;;12.54;100.00;101551.59;5056885;28;20078;-66
2022/10/28 03:13:57;;;;;;;12.70;6.32;;;;;;;12.51;100.00;101545.41;5065797;28;20040;-66
2022/10/28 03:16:22;;;;;;;12.23;6.25;;;;;;;12.49;100.00;101546.25;5064414;28;20035;-66
2022/10/28 03:18:48;;;;;;;12.30;5.88;;;;;;;12.48;100.00;101541.00;5066287;28;20526;-66
2022/10/28 03:21:14;;;;;;;9.50;6.63;;;;;;;12.45;100.00;101541.78;5065634;28;20063;-66
2022/10/28 03:23:39;;;;;;;13.35;5.82;;;;;;;12.45;100.00;101540.88;5066421;28;20032;-66
2022/10/28 03:26:04;;;;;;;11.27;6.03;;;;;;;12.43;100.00;101548.63;5063486;28;20119;-65
2022/10/28 03:28:30;;;;;;;10.25;6.32;;;;;;;12.44;100.00;101540.03;5054194;28;20480;-65
2022/10/28 03:30:55;;;;;;;8.77;5.95;;;;;;;12.45;100.00;101535.69;5052385;28;20032;-66
2022/10/28 03:33:20;;;;;;;11.45;5.68;;;;;;;12.44;100.00;101534.81;5052491;28;20426;-65
2022/10/28 03:35:45;;;;;;;8.55;5.35;;;;;;;12.45;100.00;101538.28;5055069;28;20028;-65
2022/10/28 03:38:11;;;;;;;10.98;5.70;;;;;;;12.45;100.00;101531.38;5049393;28;20098;-66
2022/10/28 03:40:36;;;;;;;10.77;5.78;;;;;;;12.45;100.00;101543.47;5056121;28;20097;-66
2022/10/28 03:43:01;;;;;;;14.88;5.72;;;;;;;12.45;100.00;101541.78;5046409;28;20081;-65
2022/10/28 03:45:26;;;;;;;8.63;5.65;;;;;;;12.47;100.00;101537.53;5071106;28;20020;-65
2022/10/28 03:47:52;;;;;;;18.55;6.40;;;;;;;12.47;100.00;101536.63;5074402;28;20044;-65
2022/10/28 03:50:17;;;;;;;8.63;5.97;;;;;;;12.47;100.00;101534.03;5066086;28;20017;-66
2022/10/28 03:52:43;;;;;;;10.75;5.93;;;;;;;12.48;100.00;101528.88;5069420;28;20028;-65
2022/10/28 03:55:09;;;;;;;9.82;6.10;;;;;;;12.47;100.00;101534.91;5069170;28;20123;-66
2022/10/28 03:57:34;;;;;;;9.18;5.45;;;;;;;12.47;100.00;101524.53;5070000;28;20135;-66
2022/10/28 03:59:59;;;;;;;10.50;5.95;;;;;;;12.48;100.00;101531.47;5069759;28;20107;-66
2022/10/28 04:02:25;;;;;;;9.85;6.03;;;;;;;12.51;100.00;101529.81;5053919;28;20017;-66
2022/10/28 04:04:51;;;;;;;12.27;5.90;;;;;;;12.54;100.00;101530.81;5063416;28;20028;-65
2022/10/28 04:07:16;;;;;;;12.38;6.38;;;;;;;12.55;100.00;101523.91;5054627;28;20075;-66
2022/10/28 04:09:41;;;;;;;9.27;5.25;;;;;;;12.57;100.00;101532.66;5068574;28;20020;-66
2022/10/28 04:12:09;;;;;;;7.93;5.15;;;;;;;12.58;100.00;101524.91;5069712;28;20519;-65
2022/10/28 04:14:34;;;;;;;9.00;5.13;;;;;;;12.60;100.00;101527.56;5068925;28;20071;-66
2022/10/28 04:17:00;;;;;;;11.48;5.80;;;;;;;12.61;100.00;101526.69;5069006;28;20020;-65
2022/10/28 04:19:25;;;;;;;8.07;5.03;;;;;;;12.63;100.00;101524.19;5068907;28;20563;-65
2022/10/28 04:21:50;;;;;;;14.02;6.22;;;;;;;12.65;100.00;101538.09;5069034;28;20028;-65
2022/10/28 04:24:15;;;;;;;7.38;5.32;;;;;;;12.66;100.00;101537.28;5053577;28;20533;-66
2022/10/28 04:26:41;;;;;;;12.10;5.30;;;;;;;12.68;100.00;101535.63;5063062;28;20103;-65
2022/10/28 04:29:06;;;;;;;9.68;5.82;;;;;;;12.70;100.00;101533.97;5049272;28;20017;-65
2022/10/28 04:31:31;;;;;;;11.07;5.63;;;;;;;12.71;100.00;101543.53;5066743;28;20032;-65
2022/10/28 04:33:57;;;;;;;10.68;5.05;;;;;;;12.73;100.00;101547.06;5058566;28;20024;-65
2022/10/28 04:36:22;;;;;;;10.05;6.28;;;;;;;12.73;100.00;101537.56;5062127;28;20476;-65
2022/10/28 04:38:48;;;;;;;7.68;5.82;;;;;;;12.75;100.00;101544.50;5049167;28;20035;-65
2022/10/28 04:41:14;;;;;;;10.65;5.70;;;;;;;12.73;100.00;101536.66;5049115;28;20788;-65
2022/10/28 04:43:39;;;;;;;11.52;6.00;;;;;;;12.73;100.00;101537.56;5062597;28;20061;-65
2022/10/28 04:46:05;;;;;;;9.50;5.88;;;;;;;12.71;100.00;101534.00;5070344;28;20028;-65
2022/10/28 04:48:31;;;;;;;14.75;6.85;;;;;;;12.71;100.00;101539.22;5068608;28;20404;-65
2022/10/28 04:50:57;;;;;;;12.32;6.70;;;;;;;12.70;100.00;101532.22;5048161;28;20025;-65
2022/10/28 04:53:22;;;;;;;15.27;6.70;;;;;;;12.71;100.00;101528.81;5047884;28;20459;-65
2022/10/28 04:55:47;;;;;;;12.13;6.57;;;;;;;12.71;100.00;101528.81;5048905;28;20031;-65
2022/10/28 04:58:12;;;;;;;13.32;6.82;;;;;;;12.73;100.00;101531.47;5061237;28;20364;-65
2022/10/28 05:00:38;;;;;;;13.02;6.05;;;;;;;12.73;100.00;101532.34;5063262;28;20017;-66
2022/10/28 05:03:03;;;;;;;10.45;5.93;;;;;;;12.73;100.00;101527.16;5058229;28;20502;-65
2022/10/28 05:05:29;;;;;;;9.35;6.10;;;;;;;12.74;100.00;101533.22;5068048;28;20066;-65
2022/10/28 05:07:54;;;;;;;10.98;6.90;;;;;;;12.76;100.00;101525.47;5067747;28;20024;-65
2022/10/28 05:10:19;;;;;;;15.82;6.80;;;;;;;12.73;100.00;101527.16;5068262;28;20020;-65
2022/10/28 05:12:45;;;;;;;11.48;5.80;;;;;;;12.74;100.00;101530.63;5068028;28;20019;-65
2022/10/28 05:15:11;;;;;;;16.48;6.85;;;;;;;12.75;100.00;101529.81;5059199;28;20021;-65
2022/10/28 05:17:38;;;;;;;17.58;5.95;;;;;;;12.75;100.00;101528.91;5047659;28;20021;-65
2022/10/28 05:20:04;;;;;;;9.95;5.43;;;;;;;12.76;100.00;101535.88;5056013;28;20573;-65
2022/10/28 05:22:30;;;;;;;9.20;5.75;;;;;;;12.76;100.00;101536.75;5067472;28;20454;-65
2022/10/28 05:24:55;;;;;;;11.57;6.20;;;;;;;12.76;100.00;101533.25;5053387;28;20044;-65
2022/10/28 05:27:20;;;;;;;11.52;5.45;;;;;;;12.76;100.00;101535.88;5056285;28;20024;-65
2022/10/28 05:29:45;;;;;;;14.88;6.03;;;;;;;12.77;100.00;101527.25;5047568;28;20052;-65
2022/10/28 05:32:11;;;;;;;14.55;6.72;;;;;;;12.76;100.00;101515.06;5057201;28;20029;-65
2022/10/28 05:34:36;;;;;;;13.18;5.60;;;;;;;12.75;100.00;101519.41;5067146;28;20046;-65
2022/10/28 05:37:01;;;;;;;13.02;6.35;;;;;;;12.75;100.00;101509.00;5067594;28;20481;-65
2022/10/28 05:39:26;;;;;;;12.65;5.90;;;;;;;12.76;100.00;101509.88;5067503;28;20090;-65
2022/10/28 05:41:52;;;;;;;11.60;5.78;;;;;;;12.77;100.00;101511.66;5064902;28;20144;-65
2022/10/28 05:44:17;;;;;;;12.18;5.70;;;;;;;12.78;100.00;101510.81;5051302;28;20051;-65
2022/10/28 05:46:42;;;;;;;12.30;6.35;;;;;;;12.80;100.00;101522.16;5063690;28;20376;-65
2022/10/28 05:49:07;;;;;;;17.35;6.80;;;;;;;12.79;100.00;101516.06;5067122;28;20023;-65
2022/10/28 05:51:33;;;;;;;12.32;6.18;;;;;;;12.80;100.00;101516.94;5067120;28;20480;-65
2022/10/28 05:53:58;;;;;;;11.90;6.47;;;;;;;12.80;100.00;101516.94;5074177;28;20024;-65
2022/10/28 05:56:23;;;;;;;11.02;6.10;;;;;;;12.80;100.00;101515.25;5074472;28;20415;-65
2022/10/28 05:58:48;;;;;;;10.38;6.40;;;;;;;12.80;100.00;101514.34;5053013;28;20041;-65
2022/10/28 06:01:14;;;;;;;8.68;5.85;;;;;;;12.79;100.00;101515.19;5066164;28;20650;-65
2022/10/28 06:03:39;;;;;;;13.35;5.95;;;;;;;12.78;100.00;101518.59;5065439;28;20024;-65
2022/10/28 06:06:05;;;;;;;15.00;6.43;;;;;;;12.78;100.00;101516.00;5067605;28;20486;-65
2022/10/28 06:08:30;;;;;;;11.25;5.78;;;;;;;12.77;100.00;101519.44;5067001;28;20044;-65
2022/10/28 06:10:55;;;;;;;12.52;5.65;;;;;;;12.78;100.00;101516.91;5066287;28;20051;-65
2022/10/28 06:13:22;;;;;;;15.20;6.65;;;;;;;12.79;100.00;101515.19;5058664;28;20415;-65
2022/10/28 06:15:54;;;;;;;13.20;7.00;;;;;;;12.79;100.00;101521.25;5053886;28;20037;-65
2022/10/28 06:18:20;;;;;;;9.90;6.13;;;;;;;12.80;100.00;101517.84;5047451;28;20021;-65
2022/10/28 06:21:12;;;;;;;12.60;6.70;;;;;;;12.82;100.00;101529.19;5047478;28;20009;-65
2022/10/28 06:23:37;;;;;;;12.57;6.45;;;;;;;12.81;100.00;101529.09;5044281;28;20029;-65
2022/10/28 06:26:04;;;;;;;13.23;7.07;;;;;;;12.83;100.00;101530.03;5051189;28;20029;-65
2022/10/28 06:28:30;;;;;;;11.32;6.50;;;;;;;12.84;100.00;101529.22;5049419;28;20020;-65
2022/10/28 06:31:08;;;;;;;12.82;6.55;;;;;;;12.83;100.00;101528.34;5053820;28;20021;-65
2022/10/28 06:33:33;;;;;;;12.30;5.50;;;;;;;12.84;100.00;101530.09;5055028;28;20560;-65
2022/10/28 06:36:00;;;;;;;10.55;6.30;;;;;;;12.85;100.00;101536.19;5048872;28;20009;-65
2022/10/28 06:38:25;;;;;;;11.02;5.82;;;;;;;12.85;100.00;101531.88;5049971;28;20028;-66
2022/10/28 06:40:51;;;;;;;13.77;6.78;;;;;;;12.86;100.00;101527.56;5053484;28;20372;-65
2022/10/28 06:43:16;;;;;;;17.23;6.45;;;;;;;12.88;100.00;101523.28;5049307;28;20144;-65
2022/10/28 06:45:42;;;;;;;14.95;6.85;;;;;;;12.89;100.00;101518.97;5051335;28;20028;-64
2022/10/28 06:48:08;;;;;;;10.35;6.32;;;;;;;12.91;100.00;101520.81;5052395;28;20025;-65
2022/10/28 06:50:35;;;;;;;10.45;6.65;;;;;;;12.94;100.00;101523.50;5056166;28;20386;-65
2022/10/28 06:53:01;;;;;;;14.52;7.70;;;;;;;12.97;100.00;101523.59;5050843;28;20078;-64
2022/10/28 06:55:26;;;;;;;12.63;6.60;;;;;;;13.01;100.00;101521.06;5056132;28;20408;-65
2022/10/28 06:57:52;;;;;;;10.07;7.03;;;;;;;13.03;100.00;101517.72;5051379;28;20093;-65
2022/10/28 07:00:18;;;;;;;12.80;6.43;;;;;;;13.07;100.00;101516.09;5046156;28;20047;-65
2022/10/28 07:02:48;;;;;;;12.60;6.97;;;;;;;13.10;100.00;101521.38;5048600;28;20229;-65
2022/10/28 07:05:14;;;;;;;12.80;6.95;;;;;;;13.12;100.00;101519.72;5053188;28;20808;-65
2022/10/28 07:07:39;;;;;;;10.02;7.05;;;;;;;13.17;100.00;101533.75;5055819;28;20025;-65
2022/10/28 07:10:05;;;;;;;11.63;7.50;;;;;;;13.19;100.00;101519.09;5056175;28;20025;-65
2022/10/28 07:12:30;;;;;;;13.05;6.82;;;;;;;13.23;100.00;101537.41;5052776;28;20031;-65
2022/10/28 07:14:56;;;;;;;12.05;6.53;;;;;;;13.26;100.00;101534.91;5047187;28;20024;-65
2022/10/28 07:17:21;;;;;;;12.75;6.45;;;;;;;13.29;100.00;101527.19;5048271;28;20025;-65
2022/10/28 07:19:46;;;;;;;11.20;6.60;;;;;;;13.31;100.00;101526.41;5055941;28;20032;-65
2022/10/28 07:22:11;;;;;;;9.55;6.40;;;;;;;13.36;100.00;101525.66;5049421;28;20055;-65
2022/10/28 07:24:37;;;;;;;15.80;7.85;;;;;;;13.39;100.00;101534.44;5046950;28;20029;-65
2022/10/28 07:27:02;;;;;;;14.40;6.85;;;;;;;13.45;100.00;101533.75;5056050;28;20020;-65
2022/10/28 07:29:28;;;;;;;9.98;6.32;;;;;;;13.49;100.00;101540.81;5052392;28;20354;-65
2022/10/28 07:31:54;;;;;;;9.82;6.95;;;;;;;13.56;100.00;101545.41;5062059;28;20025;-65
2022/10/28 07:34:20;;;;;;;12.73;6.70;;;;;;;13.63;100.00;101537.81;5067420;28;20021;-65
2022/10/28 07:36:49;;;;;;;12.38;6.35;;;;;;;13.71;100.00;101548.47;5056857;28;20190;-65
2022/10/28 07:39:14;;;;;;;10.77;6.57;;;;;;;13.79;100.00;101549.56;5054056;28;20025;-65
2022/10/28 07:41:39;;;;;;;13.90;6.82;;;;;;;13.86;100.00;101546.31;5055511;28;20037;-65
2022/10/28 07:44:05;;;;;;;11.35;5.97;;;;;;;13.95;100.00;101550.91;5049866;28;20164;-65
2022/10/28 07:46:31;;;;;;;12.63;6.45;;;;;;;14.03;100.00;101538.97;5055306;28;20105;-65
2022/10/28 07:48:56;;;;;;;10.93;6.30;;;;;;;14.12;100.00;101543.56;5054757;28;20123;-65
2022/10/28 07:51:21;;;;;;;14.00;6.95;;;;;;;14.21;100.00;101537.72;5057157;28;20584;-66
2022/10/28 07:53:47;;;;;;;12.50;6.18;;;;;;;14.29;100.00;101536.25;5057125;28;20103;-65
2022/10/28 07:56:12;;;;;;;10.05;5.78;;;;;;;14.35;100.00;101530.31;5053092;28;20585;-65
2022/10/28 07:58:38;;;;;;;14.07;6.93;;;;;;;14.44;100.00;101523.56;5053702;28;20012;-65
2022/10/28 08:01:05;;;;;;;13.90;6.57;;;;;;;14.52;100.00;101522.03;5052308;28;20020;-65
2022/10/28 08:03:31;;;;;;;13.00;5.88;;;;;;;14.61;100.00;101527.50;5055806;28;20054;-65
2022/10/28 08:06:07;;;;;;;13.95;6.85;;;;;;;14.74;100.00;101533.03;5051617;28;20058;-65
2022/10/28 08:08:32;;;;;;;11.60;5.95;;;;;;;14.88;100.00;101536.03;5059920;28;20028;-65
2022/10/28 08:10:57;;;;;;;12.85;6.05;;;;;;;15.03;100.00;101540.75;5064886;28;20031;-65
2022/10/28 08:13:23;;;;;;;11.15;5.90;;;;;;;15.17;100.00;101542.81;5074282;28;20464;-65
2022/10/28 08:15:54;;;;;;;10.43;5.85;;;;;;;15.26;100.00;101529.97;5053187;28;20029;-65
2022/10/28 08:18:20;;;;;;;10.55;5.78;;;;;;;15.36;100.00;101538.94;5059471;28;20170;-65
2022/10/28 08:20:46;;;;;;;15.10;6.82;;;;;;;15.46;100.00;101545.22;5055551;28;20103;-65
2022/10/28 08:23:11;;;;;;;14.65;6.10;;;;;;;15.52;100.00;101555.84;5050874;28;20096;-65
2022/10/28 08:25:37;;;;;;;13.63;6.07;;;;;;;15.59;100.00;101556.84;5049007;28;20529;-65
2022/10/28 08:28:02;;;;;;;10.00;6.07;;;;;;;15.63;100.00;101557.81;5054764;28;20176;-65
2022/10/28 08:30:27;;;;;;;13.60;6.22;;;;;;;15.68;100.00;101556.16;5053631;28;20501;-65
2022/10/28 08:32:56;;;;;;;14.90;6.03;;;;;;;15.72;100.00;101553.66;5055703;28;20127;-65
2022/10/28 08:35:21;;;;;;;10.57;5.28;;;;;;;15.75;100.00;101549.34;5053277;28;20048;-66
2022/10/28 08:37:50;;;;;;;13.10;5.47;;;;;;;15.76;100.00;101551.97;5049691;28;20083;-65
2022/10/28 08:40:16;;;;;;;8.65;5.50;;;;;;;15.78;100.00;101552.91;5050777;28;20076;-65
2022/10/28 08:42:48;;;;;;;11.45;5.60;;;;;;;15.83;100.00;101560.88;5053976;28;20564;-66
2022/10/28 08:45:36;;;;;;;13.77;5.75;;;;;;;15.92;100.00;101561.03;5050719;28;20056;-65
2022/10/28 08:48:31;;;;;;;11.10;5.35;;;;;;;16.03;100.00;101553.47;5052426;28;20393;-65
2022/10/28 08:51:03;;;;;;;10.50;5.15;;;;;;;16.10;100.00;101548.38;5054222;28;20025;-65
2022/10/28 08:53:39;;;;;;;13.63;6.20;;;;;;;16.17;100.00;101545.03;5065212;28;20020;-66
2022/10/28 08:56:13;;;;;;;14.82;4.68;;;;;;;16.22;100.00;101543.38;5068680;28;20060;-65
2022/10/28 08:58:42;;;;;;;14.05;6.13;;;;;;;16.29;100.00;101544.38;5067611;28;20043;-65
2022/10/28 09:01:18;;;;;;;11.55;5.57;;;;;;;16.37;100.00;101549.75;5068605;28;20040;-65
2022/10/28 09:03:48;;;;;;;12.55;4.80;;;;;;;16.44;100.00;101556.88;5055293;28;20020;-65
2022/10/28 09:06:14;;;;;;;12.80;6.20;;;;;;;16.53;100.00;101554.41;5055991;28;20043;-65
2022/10/28 09:08:44;;;;;;;10.57;5.25;;;;;;;16.62;100.00;101556.31;5061408;28;20400;-65
2022/10/28 09:11:09;;;;;;;10.10;4.90;;;;;;;16.70;100.00;101559.09;5079372;28;20462;-65
2022/10/28 09:13:56;;;;;;;11.93;5.75;;;;;;;16.80;100.00;101568.84;5065048;28;20037;-65
2022/10/28 09:16:44;;;;;;;11.82;5.20;;;;;;;16.91;100.00;101570.75;5049911;28;20090;-65
2022/10/28 09:19:22;;;;;;;12.73;4.93;;;;;;;16.97;100.00;101573.50;5048832;28;20437;-65
2022/10/28 09:21:56;;;;;;;11.75;4.65;;;;;;;17.08;100.00;101567.56;5055476;28;20107;-65
2022/10/28 09:24:33;;;;;;;10.60;4.88;;;;;;;17.22;100.00;101573.94;5063751;28;20463;-65
2022/10/28 09:27:09;;;;;;;10.57;4.25;;;;;;;17.36;100.00;101568.06;5056232;28;20036;-65
2022/10/28 09:29:50;;;;;;;8.75;4.05;;;;;;;17.50;100.00;101563.88;5067458;28;20021;-65
2022/10/28 09:32:46;;;;;;;13.20;4.68;;;;;;;17.63;100.00;101557.09;5056896;28;20043;-66
2022/10/28 09:35:16;;;;;;;10.38;4.25;;;;;;;17.75;100.00;101560.75;5053996;28;20101;-66
2022/10/28 09:37:51;;;;;;;7.70;4.65;;;;;;;17.83;100.00;101568.69;5065882;28;20020;-66
2022/10/28 09:40:26;;;;;;;10.52;4.50;;;;;;;17.89;100.00;101574.03;5065160;28;20089;-65
2022/10/28 09:43:21;;;;;;;13.15;4.30;;;;;;;17.92;100.00;101581.91;5065654;28;20020;-65
2022/10/28 09:45:49;;;;;;;11.50;4.10;;;;;;;17.95;100.00;101581.09;5074692;28;20268;-65
2022/10/28 09:48:29;;;;;;;13.18;5.03;;;;;;;17.96;100.00;101575.88;5070512;28;20028;-66
2022/10/28 09:50:57;;;;;;;12.20;4.90;;;;;;;18.00;100.00;101569.81;5086075;28;20096;-66
2022/10/28 09:53:37;;;;;;;9.02;4.05;;;;;;;18.08;100.00;101575.13;5069999;28;20029;-65
2022/10/28 09:56:05;;;;;;;12.50;4.72;;;;;;;18.13;100.00;101583.06;5075227;28;20186;-66
2022/10/28 09:58:34;;;;;;;12.77;4.88;;;;;;;18.20;100.00;101577.06;5070648;28;20035;-65
2022/10/28 10:01:01;;;;;;;7.63;4.30;;;;;;;18.29;100.00;101578.91;5058092;28;20504;-65
2022/10/28 10:03:26;;;;;;;6.70;3.78;;;;;;;18.35;100.00;101575.47;5059353;28;20028;-65
2022/10/28 10:05:55;;;;;;;9.93;4.13;;;;;;;18.43;100.00;101586.06;5071328;28;20036;-65
2022/10/28 10:08:21;;;;;;;8.95;4.25;;;;;;;18.49;100.00;101586.13;5061831;28;20020;-65
2022/10/28 10:10:46;;;;;;;8.35;3.75;;;;;;;18.61;100.00;101580.13;5065288;28;20070;-66
2022/10/28 10:13:16;;;;;;;8.77;4.30;;;;;;;18.71;100.00;101576.72;5066224;28;20036;-66
2022/10/28 10:15:45;;;;;;;11.40;4.32;;;;;;;18.79;100.00;101579.44;5066819;28;20024;-66
2022/10/28 10:18:23;;;;;;;10.88;4.18;;;;;;;18.89;100.00;101572.50;5052420;28;20035;-66
2022/10/28 10:20:58;;;;;;;10.07;4.15;;;;;;;18.94;100.00;101573.41;5067219;28;20434;-66
2022/10/28 10:23:32;;;;;;;9.50;3.90;;;;;;;18.96;100.00;101576.06;5066661;28;20073;-66
2022/10/28 10:26:12;;;;;;;10.00;4.38;;;;;;;18.99;100.00;101575.22;5066135;28;20388;-66
2022/10/28 10:28:49;;;;;;;10.10;4.00;;;;;;;19.03;100.00;101572.63;5066852;28;20032;-66
2022/10/28 10:31:28;;;;;;;9.70;4.00;;;;;;;19.13;100.00;101567.47;5066346;28;20047;-64
2022/10/28 10:33:56;;;;;;;9.48;3.85;;;;;;;19.22;99.98;101566.66;5066849;28;20020;-64
2022/10/28 10:36:30;;;;;;;11.02;4.22;;;;;;;19.28;98.78;101567.63;5066386;28;20032;-63
2022/10/28 10:38:57;;;;;;;10.40;4.93;;;;;;;19.33;99.98;101570.25;5066582;28;20476;-64
2022/10/28 10:41:32;;;;;;;10.75;4.63;;;;;;;19.38;99.13;101557.16;5066803;28;20020;-63
2022/10/28 10:43:57;;;;;;;9.02;3.88;;;;;;;19.46;96.91;101560.72;5066881;28;20501;-64
2022/10/28 10:46:22;;;;;;;9.27;4.35;;;;;;;19.60;94.01;101558.16;5081360;28;20035;-63
2022/10/28 10:49:05;;;;;;;11.82;4.32;;;;;;;19.68;93.86;101553.81;5081722;28;20512;-63
2022/10/28 10:51:31;;;;;;;10.57;4.20;;;;;;;19.73;95.32;101534.56;5066029;28;20095;-66
2022/10/28 10:54:00;;;;;;;8.68;3.95;;;;;;;19.78;96.16;101553.88;5066296;28;20055;-66
2022/10/28 10:56:28;;;;;;;8.68;3.67;;;;;;;19.87;92.64;101535.50;5066941;28;20082;-66
2022/10/28 10:58:56;;;;;;;11.52;3.97;;;;;;;19.94;92.85;101546.03;5061927;28;20514;-66
2022/10/28 11:01:27;;;;;;;11.23;3.83;;;;;;;19.99;92.66;101544.31;5061504;28;20099;-66
2022/10/28 11:04:00;;;;;;;11.40;3.88;;;;;;;20.06;89.82;101543.50;5066785;28;20024;-66
2022/10/28 11:06:29;;;;;;;8.25;3.28;;;;;;;20.15;89.92;101546.16;5060827;28;20021;-66
2022/10/28 11:08:58;;;;;;;11.45;4.05;;;;;;;20.23;89.87;101558.47;5055886;28;20032;-66
2022/10/28 11:11:33;;;;;;;13.75;3.95;;;;;;;20.29;89.00;101563.75;5061711;28;20373;-66
2022/10/28 11:14:09;;;;;;;11.63;4.25;;;;;;;20.36;87.36;101570.75;5067150;28;20045;-64
2022/10/28 11:16:53;;;;;;;11.07;3.70;;;;;;;20.46;88.61;101560.25;5056837;28;20029;-64
2022/10/28 11:19:28;;;;;;;9.43;3.60;;;;;;;20.51;88.27;101555.88;5070002;28;20054;-64
2022/10/28 11:22:06;;;;;;;8.93;3.97;;;;;;;20.50;88.88;101546.25;5072351;28;20024;-64
2022/10/28 11:24:40;;;;;;;9.18;3.45;;;;;;;20.47;88.80;101527.81;5068107;28;20033;-64